sensor_id;sensor_type;location;lat;lon;timestamp;temperature;humidity
17891;DHT22;9071;48.220;14.480;2023-03-01T00:02:22;-1.30;99.90
17891;DHT22;9071;48.220;14.480;2023-03-01T00:07:25;-1.40;99.90
17891;DHT22;9071;48.220;14.480;2023-03-01T00:12:27;-1.60;99.90
17891;DHT22;9071;48.220;14.480;2023-03-01T00:17:29;-1.60;99.90
17891;DHT22;9071;48.220;14.480;2023-03-01T00:22:33;-1.50;99.90
17891;DHT22;9071;48.220;14.480;2023-03-01T00:27:35;-1.50;99.90
17891;DHT22;9071;48.220;14.480;2023-03-01T00:32:37;-1.60;99.90
17891;DHT22;9071;48.220;14.480;2023-03-01T00:37:40;-1.70;99.90
17891;DHT22;9071;48.220;14.480;2023-03-01T00:42:43;-1.80;99.90
17891;DHT22;9071;48.220;14.480;2023-03-01T00:47:45;-1.90;99.90
17891;DHT22;9071;48.220;14.480;2023-03-01T00:52:52;-1.80;99.90
17891;DHT22;9071;48.220;14.480;2023-03-01T00:57:54;-1.70;99.90
17891;DHT22;9071;48.220;14.480;2023-03-01T01:02:56;-1.60;99.90
17891;DHT22;9071;48.220;14.480;2023-03-01T01:07:59;-1.20;99.90
17891;DHT22;9071;48.220;14.480;2023-03-01T01:13:02;-1.00;99.90
17891;DHT22;9071;48.220;14.480;2023-03-01T01:18:04;-0.90;99.90
17891;DHT22;9071;48.220;14.480;2023-03-01T01:23:08;-1.00;99.90
17891;DHT22;9071;48.220;14.480;2023-03-01T01:28:10;-1.00;99.90
17891;DHT22;9071;48.220;14.480;2023-03-01T01:33:12;-1.00;99.90
17891;DHT22;9071;48.220;14.480;2023-03-01T01:38:15;-1.10;99.90
17891;DHT22;9071;48.220;14.480;2023-03-01T01:43:23;-1.20;99.90
17891;DHT22;9071;48.220;14.480;2023-03-01T01:48:30;-1.30;99.90
17891;DHT22;9071;48.220;14.480;2023-03-01T01:53:42;-1.40;99.90
17891;DHT22;9071;48.220;14.480;2023-03-01T01:58:46;-1.00;99.90
17891;DHT22;9071;48.220;14.480;2023-03-01T02:03:49;-0.90;99.90
17891;DHT22;9071;48.220;14.480;2023-03-01T02:08:53;-0.90;99.90
17891;DHT22;9071;48.220;14.480;2023-03-01T02:13:57;-1.00;99.90
17891;DHT22;9071;48.220;14.480;2023-03-01T02:18:59;-1.00;99.90
17891;DHT22;9071;48.220;14.480;2023-03-01T02:24:08;-0.90;99.90
17891;DHT22;9071;48.220;14.480;2023-03-01T02:29:13;-1.00;99.90
17891;DHT22;9071;48.220;14.480;2023-03-01T02:34:18;-0.90;99.90
17891;DHT22;9071;48.220;14.480;2023-03-01T02:39:23;-1.00;99.90
17891;DHT22;9071;48.220;14.480;2023-03-01T02:44:29;-1.00;99.90
17891;DHT22;9071;48.220;14.480;2023-03-01T02:49:33;-0.90;99.90
17891;DHT22;9071;48.220;14.480;2023-03-01T02:54:40;-1.00;99.90
17891;DHT22;9071;48.220;14.480;2023-03-01T02:59:46;-1.20;99.90
17891;DHT22;9071;48.220;14.480;2023-03-01T03:04:48;-1.40;99.90
17891;DHT22;9071;48.220;14.480;2023-03-01T03:09:50;-1.40;99.90
17891;DHT22;9071;48.220;14.480;2023-03-01T03:14:53;-1.60;99.90
17891;DHT22;9071;48.220;14.480;2023-03-01T03:19:55;-1.80;99.90
17891;DHT22;9071;48.220;14.480;2023-03-01T03:24:57;-1.90;99.90
17891;DHT22;9071;48.220;14.480;2023-03-01T03:30:01;-2.00;99.90
17891;DHT22;9071;48.220;14.480;2023-03-01T03:35:04;-1.90;99.90
17891;DHT22;9071;48.220;14.480;2023-03-01T03:40:11;-1.90;99.90
17891;DHT22;9071;48.220;14.480;2023-03-01T03:45:17;-1.90;99.90
17891;DHT22;9071;48.220;14.480;2023-03-01T03:50:19;-1.80;99.90
17891;DHT22;9071;48.220;14.480;2023-03-01T03:55:22;-1.70;99.90
17891;DHT22;9071;48.220;14.480;2023-03-01T04:00:30;-1.80;99.90
17891;DHT22;9071;48.220;14.480;2023-03-01T04:05:32;-1.90;99.90
17891;DHT22;9071;48.220;14.480;2023-03-01T04:10:36;-2.00;99.90
17891;DHT22;9071;48.220;14.480;2023-03-01T04:15:40;-1.90;99.90
17891;DHT22;9071;48.220;14.480;2023-03-01T04:20:44;-2.00;99.90
17891;DHT22;9071;48.220;14.480;2023-03-01T04:25:48;-2.00;99.90
17891;DHT22;9071;48.220;14.480;2023-03-01T04:30:56;-2.10;99.90
17891;DHT22;9071;48.220;14.480;2023-03-01T04:35:59;-2.10;99.90
17891;DHT22;9071;48.220;14.480;2023-03-01T04:41:01;-2.20;99.90
17891;DHT22;9071;48.220;14.480;2023-03-01T04:46:08;-2.20;99.90
17891;DHT22;9071;48.220;14.480;2023-03-01T04:51:11;-2.00;99.90
17891;DHT22;9071;48.220;14.480;2023-03-01T04:56:14;-2.00;99.90
17891;DHT22;9071;48.220;14.480;2023-03-01T05:01:20;-2.00;99.90
17891;DHT22;9071;48.220;14.480;2023-03-01T05:06:23;-2.00;99.90
17891;DHT22;9071;48.220;14.480;2023-03-01T05:11:25;-2.00;99.90
17891;DHT22;9071;48.220;14.480;2023-03-01T05:16:30;-1.90;99.90
17891;DHT22;9071;48.220;14.480;2023-03-01T05:21:32;-1.90;99.90
17891;DHT22;9071;48.220;14.480;2023-03-01T05:26:34;-1.90;99.90
17891;DHT22;9071;48.220;14.480;2023-03-01T05:31:42;-1.70;99.90
17891;DHT22;9071;48.220;14.480;2023-03-01T05:36:44;-1.80;99.90
17891;DHT22;9071;48.220;14.480;2023-03-01T05:41:46;-1.80;99.90
17891;DHT22;9071;48.220;14.480;2023-03-01T05:46:50;-1.90;99.90
17891;DHT22;9071;48.220;14.480;2023-03-01T05:51:54;-1.90;99.90
17891;DHT22;9071;48.220;14.480;2023-03-01T05:56:56;-1.90;99.90
17891;DHT22;9071;48.220;14.480;2023-03-01T06:02:00;-1.80;99.90
17891;DHT22;9071;48.220;14.480;2023-03-01T06:07:02;-1.50;99.90
17891;DHT22;9071;48.220;14.480;2023-03-01T06:12:04;-1.10;99.90
17891;DHT22;9071;48.220;14.480;2023-03-01T06:17:08;-1.00;99.90
17891;DHT22;9071;48.220;14.480;2023-03-01T06:22:10;-0.90;99.90
17891;DHT22;9071;48.220;14.480;2023-03-01T06:27:12;-0.70;99.90
17891;DHT22;9071;48.220;14.480;2023-03-01T06:32:16;-0.40;99.90
17891;DHT22;9071;48.220;14.480;2023-03-01T06:37:19;-0.20;99.90
17891;DHT22;9071;48.220;14.480;2023-03-01T06:42:21;0.70;99.90
17891;DHT22;9071;48.220;14.480;2023-03-01T06:47:24;2.30;99.90
17891;DHT22;9071;48.220;14.480;2023-03-01T06:52:26;3.50;99.90
17891;DHT22;9071;48.220;14.480;2023-03-01T06:57:29;4.40;99.90
17891;DHT22;9071;48.220;14.480;2023-03-01T07:02:32;5.40;99.90
17891;DHT22;9071;48.220;14.480;2023-03-01T07:07:34;6.20;99.90
17891;DHT22;9071;48.220;14.480;2023-03-01T07:12:36;6.70;99.90
17891;DHT22;9071;48.220;14.480;2023-03-01T07:17:40;7.30;99.90
17891;DHT22;9071;48.220;14.480;2023-03-01T07:22:42;7.00;99.90
17891;DHT22;9071;48.220;14.480;2023-03-01T07:27:49;7.20;99.90
17891;DHT22;9071;48.220;14.480;2023-03-01T07:32:52;7.20;99.90
17891;DHT22;9071;48.220;14.480;2023-03-01T07:37:55;8.30;99.90
17891;DHT22;9071;48.220;14.480;2023-03-01T07:42:57;7.90;99.90
17891;DHT22;9071;48.220;14.480;2023-03-01T07:48:01;9.10;99.90
17891;DHT22;9071;48.220;14.480;2023-03-01T07:53:03;8.80;99.90
17891;DHT22;9071;48.220;14.480;2023-03-01T07:58:05;9.50;99.90
17891;DHT22;9071;48.220;14.480;2023-03-01T08:03:09;10.30;99.90
17891;DHT22;9071;48.220;14.480;2023-03-01T08:08:11;10.50;99.90
17891;DHT22;9071;48.220;14.480;2023-03-01T08:13:13;9.10;99.90
17891;DHT22;9071;48.220;14.480;2023-03-01T08:18:17;10.70;99.90
17891;DHT22;9071;48.220;14.480;2023-03-01T08:23:20;10.30;99.90
17891;DHT22;9071;48.220;14.480;2023-03-01T08:28:22;10.80;99.90
17891;DHT22;9071;48.220;14.480;2023-03-01T08:33:25;10.20;99.90
17891;DHT22;9071;48.220;14.480;2023-03-01T08:38:28;10.00;99.90
17891;DHT22;9071;48.220;14.480;2023-03-01T08:43:31;9.80;99.90
17891;DHT22;9071;48.220;14.480;2023-03-01T08:48:34;9.80;99.90
17891;DHT22;9071;48.220;14.480;2023-03-01T08:53:37;9.50;99.90
17891;DHT22;9071;48.220;14.480;2023-03-01T08:58:39;7.70;99.90
17891;DHT22;9071;48.220;14.480;2023-03-01T09:03:43;7.20;99.90
17891;DHT22;9071;48.220;14.480;2023-03-01T09:08:47;6.90;99.90
17891;DHT22;9071;48.220;14.480;2023-03-01T09:13:50;7.20;99.90
17891;DHT22;9071;48.220;14.480;2023-03-01T09:18:54;7.20;99.90
17891;DHT22;9071;48.220;14.480;2023-03-01T09:23:57;7.30;99.90
17891;DHT22;9071;48.220;14.480;2023-03-01T09:28:59;7.30;99.90
17891;DHT22;9071;48.220;14.480;2023-03-01T09:34:03;7.50;99.90
17891;DHT22;9071;48.220;14.480;2023-03-01T09:39:05;7.40;99.90
17891;DHT22;9071;48.220;14.480;2023-03-01T09:44:12;6.90;99.90
17891;DHT22;9071;48.220;14.480;2023-03-01T09:49:23;6.90;99.90
17891;DHT22;9071;48.220;14.480;2023-03-01T09:54:26;6.80;99.90
17891;DHT22;9071;48.220;14.480;2023-03-01T09:59:33;6.90;99.90
17891;DHT22;9071;48.220;14.480;2023-03-01T10:04:45;6.90;99.90
17891;DHT22;9071;48.220;14.480;2023-03-01T10:09:48;7.00;99.90
17891;DHT22;9071;48.220;14.480;2023-03-01T10:14:55;7.20;99.90
17891;DHT22;9071;48.220;14.480;2023-03-01T10:20:14;7.30;99.90
17891;DHT22;9071;48.220;14.480;2023-03-01T10:25:23;7.50;99.90
17891;DHT22;9071;48.220;14.480;2023-03-01T10:30:35;7.60;99.90
17891;DHT22;9071;48.220;14.480;2023-03-01T10:35:40;7.60;99.90
17891;DHT22;9071;48.220;14.480;2023-03-01T10:40:54;7.50;99.90
17891;DHT22;9071;48.220;14.480;2023-03-01T10:45:57;7.70;99.90
17891;DHT22;9071;48.220;14.480;2023-03-01T10:51:07;7.80;99.90
17891;DHT22;9071;48.220;14.480;2023-03-01T10:56:11;8.10;99.90
17891;DHT22;9071;48.220;14.480;2023-03-01T11:01:25;8.30;99.90
17891;DHT22;9071;48.220;14.480;2023-03-01T11:06:29;8.20;99.90
17891;DHT22;9071;48.220;14.480;2023-03-01T11:11:32;8.30;99.90
17891;DHT22;9071;48.220;14.480;2023-03-01T11:16:36;8.40;99.90
17891;DHT22;9071;48.220;14.480;2023-03-01T11:21:44;8.60;99.90
17891;DHT22;9071;48.220;14.480;2023-03-01T11:26:52;8.80;99.90
17891;DHT22;9071;48.220;14.480;2023-03-01T11:31:58;8.80;99.90
17891;DHT22;9071;48.220;14.480;2023-03-01T11:37:09;8.90;99.90
17891;DHT22;9071;48.220;14.480;2023-03-01T11:42:18;8.90;99.90
17891;DHT22;9071;48.220;14.480;2023-03-01T11:47:43;8.80;99.90
17891;DHT22;9071;48.220;14.480;2023-03-01T11:53:01;9.10;99.90
17891;DHT22;9071;48.220;14.480;2023-03-01T11:58:27;9.30;99.90
17891;DHT22;9071;48.220;14.480;2023-03-01T12:03:47;9.10;99.90
17891;DHT22;9071;48.220;14.480;2023-03-01T12:09:02;9.00;99.90
17891;DHT22;9071;48.220;14.480;2023-03-01T12:14:19;9.10;99.90
17891;DHT22;9071;48.220;14.480;2023-03-01T12:19:37;9.30;99.90
17891;DHT22;9071;48.220;14.480;2023-03-01T12:25:10;9.20;99.90
17891;DHT22;9071;48.220;14.480;2023-03-01T12:30:26;9.20;99.90
17891;DHT22;9071;48.220;14.480;2023-03-01T12:35:50;9.30;99.90
17891;DHT22;9071;48.220;14.480;2023-03-01T12:46:44;9.30;99.90
17891;DHT22;9071;48.220;14.480;2023-03-01T12:51:56;9.50;99.90
17891;DHT22;9071;48.220;14.480;2023-03-01T12:57:06;9.60;99.90
17891;DHT22;9071;48.220;14.480;2023-03-01T13:02:16;9.60;99.90
17891;DHT22;9071;48.220;14.480;2023-03-01T13:07:28;9.50;99.90
17891;DHT22;9071;48.220;14.480;2023-03-01T13:13:03;9.40;99.90
17891;DHT22;9071;48.220;14.480;2023-03-01T13:18:31;9.50;99.90
17891;DHT22;9071;48.220;14.480;2023-03-01T13:23:39;9.30;99.90
17891;DHT22;9071;48.220;14.480;2023-03-01T13:28:48;9.40;99.90
17891;DHT22;9071;48.220;14.480;2023-03-01T13:33:52;9.40;99.90
17891;DHT22;9071;48.220;14.480;2023-03-01T13:38:56;9.50;99.90
17891;DHT22;9071;48.220;14.480;2023-03-01T13:43:59;9.40;99.90
17891;DHT22;9071;48.220;14.480;2023-03-01T13:49:03;9.60;99.90
17891;DHT22;9071;48.220;14.480;2023-03-01T13:54:05;9.60;99.90
17891;DHT22;9071;48.220;14.480;2023-03-01T13:59:14;9.50;99.90
17891;DHT22;9071;48.220;14.480;2023-03-01T14:04:21;9.70;99.90
17891;DHT22;9071;48.220;14.480;2023-03-01T14:09:26;9.70;99.90
17891;DHT22;9071;48.220;14.480;2023-03-01T14:14:41;9.70;99.90
17891;DHT22;9071;48.220;14.480;2023-03-01T14:19:46;9.70;99.90
17891;DHT22;9071;48.220;14.480;2023-03-01T14:24:51;9.80;99.90
17891;DHT22;9071;48.220;14.480;2023-03-01T14:29:58;9.70;99.90
17891;DHT22;9071;48.220;14.480;2023-03-01T14:35:02;9.70;99.90
17891;DHT22;9071;48.220;14.480;2023-03-01T14:40:18;9.80;99.90
17891;DHT22;9071;48.220;14.480;2023-03-01T14:45:22;10.00;99.90
17891;DHT22;9071;48.220;14.480;2023-03-01T14:50:29;9.80;99.90
17891;DHT22;9071;48.220;14.480;2023-03-01T14:55:34;9.60;99.90
17891;DHT22;9071;48.220;14.480;2023-03-01T15:00:37;9.70;99.90
17891;DHT22;9071;48.220;14.480;2023-03-01T15:05:43;9.70;99.90
17891;DHT22;9071;48.220;14.480;2023-03-01T15:10:57;9.60;99.90
17891;DHT22;9071;48.220;14.480;2023-03-01T15:16:10;9.40;99.90
17891;DHT22;9071;48.220;14.480;2023-03-01T15:21:19;9.40;99.90
17891;DHT22;9071;48.220;14.480;2023-03-01T15:26:28;9.20;99.90
17891;DHT22;9071;48.220;14.480;2023-03-01T15:31:33;9.10;99.90
17891;DHT22;9071;48.220;14.480;2023-03-01T15:36:41;9.00;99.90
17891;DHT22;9071;48.220;14.480;2023-03-01T15:41:47;8.90;99.90
17891;DHT22;9071;48.220;14.480;2023-03-01T15:46:49;8.70;99.90
17891;DHT22;9071;48.220;14.480;2023-03-01T15:51:54;8.60;99.90
17891;DHT22;9071;48.220;14.480;2023-03-01T15:56:56;8.40;99.90
17891;DHT22;9071;48.220;14.480;2023-03-01T16:01:59;8.30;99.90
17891;DHT22;9071;48.220;14.480;2023-03-01T16:07:02;8.00;99.90
17891;DHT22;9071;48.220;14.480;2023-03-01T16:12:08;7.90;99.90
17891;DHT22;9071;48.220;14.480;2023-03-01T16:17:11;7.70;99.90
17891;DHT22;9071;48.220;14.480;2023-03-01T16:22:15;7.60;99.90
17891;DHT22;9071;48.220;14.480;2023-03-01T16:27:17;7.40;99.90
17891;DHT22;9071;48.220;14.480;2023-03-01T16:32:21;7.20;99.90
17891;DHT22;9071;48.220;14.480;2023-03-01T16:37:24;7.10;99.90
17891;DHT22;9071;48.220;14.480;2023-03-01T16:42:26;7.10;99.90
17891;DHT22;9071;48.220;14.480;2023-03-01T16:47:28;7.00;99.90
17891;DHT22;9071;48.220;14.480;2023-03-01T16:52:33;6.80;99.90
17891;DHT22;9071;48.220;14.480;2023-03-01T16:57:36;6.60;99.90
17891;DHT22;9071;48.220;14.480;2023-03-01T17:02:38;6.50;99.90
17891;DHT22;9071;48.220;14.480;2023-03-01T17:07:42;6.30;99.90
17891;DHT22;9071;48.220;14.480;2023-03-01T17:12:47;6.20;99.90
17891;DHT22;9071;48.220;14.480;2023-03-01T17:17:50;6.00;99.90
17891;DHT22;9071;48.220;14.480;2023-03-01T17:22:53;5.80;99.90
17891;DHT22;9071;48.220;14.480;2023-03-01T17:27:55;5.80;99.90
17891;DHT22;9071;48.220;14.480;2023-03-01T17:32:57;5.70;99.90
17891;DHT22;9071;48.220;14.480;2023-03-01T17:38:01;5.70;99.90
17891;DHT22;9071;48.220;14.480;2023-03-01T17:43:03;5.50;99.90
17891;DHT22;9071;48.220;14.480;2023-03-01T17:48:06;5.50;99.90
17891;DHT22;9071;48.220;14.480;2023-03-01T17:53:09;5.30;99.90
17891;DHT22;9071;48.220;14.480;2023-03-01T17:58:13;5.10;99.90
17891;DHT22;9071;48.220;14.480;2023-03-01T18:03:15;5.10;99.90
17891;DHT22;9071;48.220;14.480;2023-03-01T18:08:19;5.00;99.90
17891;DHT22;9071;48.220;14.480;2023-03-01T18:13:21;5.00;99.90
17891;DHT22;9071;48.220;14.480;2023-03-01T18:18:23;4.90;99.90
17891;DHT22;9071;48.220;14.480;2023-03-01T18:23:27;4.90;99.90
17891;DHT22;9071;48.220;14.480;2023-03-01T18:28:31;4.90;99.90
17891;DHT22;9071;48.220;14.480;2023-03-01T18:33:34;4.90;99.90
17891;DHT22;9071;48.220;14.480;2023-03-01T18:38:37;4.90;99.90
17891;DHT22;9071;48.220;14.480;2023-03-01T18:43:40;4.80;99.90
17891;DHT22;9071;48.220;14.480;2023-03-01T18:48:42;4.80;99.90
17891;DHT22;9071;48.220;14.480;2023-03-01T18:53:46;4.70;99.90
17891;DHT22;9071;48.220;14.480;2023-03-01T18:58:48;4.70;99.90
17891;DHT22;9071;48.220;14.480;2023-03-01T19:03:51;4.60;99.90
17891;DHT22;9071;48.220;14.480;2023-03-01T19:08:54;4.50;99.90
17891;DHT22;9071;48.220;14.480;2023-03-01T19:13:57;4.40;99.90
17891;DHT22;9071;48.220;14.480;2023-03-01T19:19:01;4.30;99.90
17891;DHT22;9071;48.220;14.480;2023-03-01T19:24:05;4.20;99.90
17891;DHT22;9071;48.220;14.480;2023-03-01T19:29:07;4.00;99.90
17891;DHT22;9071;48.220;14.480;2023-03-01T19:34:10;4.00;99.90
17891;DHT22;9071;48.220;14.480;2023-03-01T19:39:14;4.10;99.90
17891;DHT22;9071;48.220;14.480;2023-03-01T19:44:16;4.10;99.90
17891;DHT22;9071;48.220;14.480;2023-03-01T19:49:18;4.00;99.90
17891;DHT22;9071;48.220;14.480;2023-03-01T19:54:21;4.00;99.90
17891;DHT22;9071;48.220;14.480;2023-03-01T19:59:24;3.90;99.90
17891;DHT22;9071;48.220;14.480;2023-03-01T20:04:27;4.00;99.90
17891;DHT22;9071;48.220;14.480;2023-03-01T20:09:30;4.00;99.90
17891;DHT22;9071;48.220;14.480;2023-03-01T20:14:32;4.10;99.90
17891;DHT22;9071;48.220;14.480;2023-03-01T20:19:34;4.00;99.90
17891;DHT22;9071;48.220;14.480;2023-03-01T20:24:38;3.90;99.90
17891;DHT22;9071;48.220;14.480;2023-03-01T20:29:40;4.00;99.90
17891;DHT22;9071;48.220;14.480;2023-03-01T20:34:42;3.90;99.90
17891;DHT22;9071;48.220;14.480;2023-03-01T20:39:46;3.90;99.90
17891;DHT22;9071;48.220;14.480;2023-03-01T20:44:48;4.00;99.90
17891;DHT22;9071;48.220;14.480;2023-03-01T20:49:50;3.90;99.90
17891;DHT22;9071;48.220;14.480;2023-03-01T20:54:54;3.90;99.90
17891;DHT22;9071;48.220;14.480;2023-03-01T20:59:56;3.90;99.90
17891;DHT22;9071;48.220;14.480;2023-03-01T21:04:58;3.90;99.90
17891;DHT22;9071;48.220;14.480;2023-03-01T21:10:01;3.80;99.90
17891;DHT22;9071;48.220;14.480;2023-03-01T21:15:05;3.90;99.90
17891;DHT22;9071;48.220;14.480;2023-03-01T21:20:09;3.80;99.90
17891;DHT22;9071;48.220;14.480;2023-03-01T21:25:13;3.90;99.90
17891;DHT22;9071;48.220;14.480;2023-03-01T21:30:15;3.90;99.90
17891;DHT22;9071;48.220;14.480;2023-03-01T21:35:17;3.90;99.90
17891;DHT22;9071;48.220;14.480;2023-03-01T21:40:21;3.80;99.90
17891;DHT22;9071;48.220;14.480;2023-03-01T21:45:23;3.70;99.90
17891;DHT22;9071;48.220;14.480;2023-03-01T21:50:25;3.70;99.90
17891;DHT22;9071;48.220;14.480;2023-03-01T21:55:28;3.50;99.90
17891;DHT22;9071;48.220;14.480;2023-03-01T22:00:30;3.40;99.90
17891;DHT22;9071;48.220;14.480;2023-03-01T22:05:33;3.20;99.90
17891;DHT22;9071;48.220;14.480;2023-03-01T22:10:39;3.00;99.90
17891;DHT22;9071;48.220;14.480;2023-03-01T22:15:43;2.90;99.90
17891;DHT22;9071;48.220;14.480;2023-03-01T22:20:45;3.00;99.90
17891;DHT22;9071;48.220;14.480;2023-03-01T22:25:49;3.20;99.90
17891;DHT22;9071;48.220;14.480;2023-03-01T22:30:51;3.30;99.90
17891;DHT22;9071;48.220;14.480;2023-03-01T22:35:54;3.30;99.90
17891;DHT22;9071;48.220;14.480;2023-03-01T22:40:59;3.20;99.90
17891;DHT22;9071;48.220;14.480;2023-03-01T22:46:09;3.00;99.90
17891;DHT22;9071;48.220;14.480;2023-03-01T22:51:14;3.10;99.90
17891;DHT22;9071;48.220;14.480;2023-03-01T22:56:19;3.00;99.90
17891;DHT22;9071;48.220;14.480;2023-03-01T23:01:23;3.10;99.90
17891;DHT22;9071;48.220;14.480;2023-03-01T23:06:25;3.20;99.90
17891;DHT22;9071;48.220;14.480;2023-03-01T23:11:31;3.30;99.90
17891;DHT22;9071;48.220;14.480;2023-03-01T23:16:33;3.30;99.90
17891;DHT22;9071;48.220;14.480;2023-03-01T23:21:35;3.30;99.90
17891;DHT22;9071;48.220;14.480;2023-03-01T23:26:39;3.30;99.90
17891;DHT22;9071;48.220;14.480;2023-03-01T23:31:41;3.20;99.90
17891;DHT22;9071;48.220;14.480;2023-03-01T23:36:43;3.20;99.90
17891;DHT22;9071;48.220;14.480;2023-03-01T23:41:47;3.20;99.90
17891;DHT22;9071;48.220;14.480;2023-03-01T23:46:49;3.10;99.90
17891;DHT22;9071;48.220;14.480;2023-03-01T23:51:51;2.90;99.90
17891;DHT22;9071;48.220;14.480;2023-03-01T23:56:55;2.60;99.90
